sensor_id;sensor_type;location;lat;lon;timestamp;temperature;humidity
24226;DHT22;51462;51.422;5.514;2022-10-16T00:01:33;13.50;99.90
24226;DHT22;51462;51.422;5.514;2022-10-16T00:04:00;13.50;99.90
24226;DHT22;51462;51.422;5.514;2022-10-16T00:06:27;13.50;99.90
24226;DHT22;51462;51.422;5.514;2022-10-16T00:08:53;13.60;99.90
24226;DHT22;51462;51.422;5.514;2022-10-16T00:11:26;13.40;99.90
24226;DHT22;51462;51.422;5.514;2022-10-16T00:13:57;13.50;99.90
24226;DHT22;51462;51.422;5.514;2022-10-16T00:16:23;13.50;99.90
24226;DHT22;51462;51.422;5.514;2022-10-16T00:18:48;13.50;99.90
24226;DHT22;51462;51.422;5.514;2022-10-16T00:21:17;13.40;99.90
24226;DHT22;51462;51.422;5.514;2022-10-16T00:23:43;13.40;99.90
24226;DHT22;51462;51.422;5.514;2022-10-16T00:26:14;13.50;99.90
24226;DHT22;51462;51.422;5.514;2022-10-16T00:28:40;13.50;99.90
24226;DHT22;51462;51.422;5.514;2022-10-16T00:31:09;13.40;99.90
24226;DHT22;51462;51.422;5.514;2022-10-16T00:33:36;13.40;99.90
24226;DHT22;51462;51.422;5.514;2022-10-16T00:36:03;13.30;99.90
24226;DHT22;51462;51.422;5.514;2022-10-16T00:38:29;13.30;99.90
24226;DHT22;51462;51.422;5.514;2022-10-16T00:40:55;13.30;99.90
24226;DHT22;51462;51.422;5.514;2022-10-16T00:43:37;13.30;99.90
24226;DHT22;51462;51.422;5.514;2022-10-16T00:46:10;13.10;99.90
24226;DHT22;51462;51.422;5.514;2022-10-16T00:48:36;13.10;99.90
24226;DHT22;51462;51.422;5.514;2022-10-16T00:51:02;13.00;99.90
24226;DHT22;51462;51.422;5.514;2022-10-16T00:53:29;13.10;99.90
24226;DHT22;51462;51.422;5.514;2022-10-16T00:55:55;13.10;99.90
24226;DHT22;51462;51.422;5.514;2022-10-16T00:58:21;13.10;99.90
24226;DHT22;51462;51.422;5.514;2022-10-16T01:00:47;13.20;99.90
24226;DHT22;51462;51.422;5.514;2022-10-16T01:06:20;13.00;99.90
24226;DHT22;51462;51.422;5.514;2022-10-16T01:14:43;13.00;99.90
24226;DHT22;51462;51.422;5.514;2022-10-16T01:17:16;12.90;99.90
24226;DHT22;51462;51.422;5.514;2022-10-16T01:22:44;13.00;99.90
24226;DHT22;51462;51.422;5.514;2022-10-16T01:25:23;13.00;99.90
24226;DHT22;51462;51.422;5.514;2022-10-16T01:27:50;12.90;99.90
24226;DHT22;51462;51.422;5.514;2022-10-16T01:30:21;13.00;99.90
24226;DHT22;51462;51.422;5.514;2022-10-16T01:33:02;12.90;99.90
24226;DHT22;51462;51.422;5.514;2022-10-16T01:35:36;12.80;99.90
24226;DHT22;51462;51.422;5.514;2022-10-16T01:38:19;12.70;99.90
24226;DHT22;51462;51.422;5.514;2022-10-16T01:40:50;12.80;99.90
24226;DHT22;51462;51.422;5.514;2022-10-16T01:43:21;12.90;99.90
24226;DHT22;51462;51.422;5.514;2022-10-16T01:45:48;12.90;99.90
24226;DHT22;51462;51.422;5.514;2022-10-16T01:48:17;13.00;99.90
24226;DHT22;51462;51.422;5.514;2022-10-16T01:50:44;13.00;99.90
24226;DHT22;51462;51.422;5.514;2022-10-16T01:53:12;12.90;99.90
24226;DHT22;51462;51.422;5.514;2022-10-16T01:55:41;13.00;99.90
24226;DHT22;51462;51.422;5.514;2022-10-16T01:58:12;13.10;99.90
24226;DHT22;51462;51.422;5.514;2022-10-16T02:00:40;13.00;99.90
24226;DHT22;51462;51.422;5.514;2022-10-16T02:03:07;13.00;99.90
24226;DHT22;51462;51.422;5.514;2022-10-16T02:08:04;12.90;99.90
24226;DHT22;51462;51.422;5.514;2022-10-16T02:10:30;12.90;99.90
24226;DHT22;51462;51.422;5.514;2022-10-16T02:15:31;12.90;99.90
24226;DHT22;51462;51.422;5.514;2022-10-16T02:17:56;13.00;99.90
24226;DHT22;51462;51.422;5.514;2022-10-16T02:20:27;13.00;99.90
24226;DHT22;51462;51.422;5.514;2022-10-16T02:22:54;13.10;99.90
24226;DHT22;51462;51.422;5.514;2022-10-16T02:25:31;13.00;99.90
24226;DHT22;51462;51.422;5.514;2022-10-16T02:28:09;13.00;99.90
24226;DHT22;51462;51.422;5.514;2022-10-16T02:30:48;13.00;99.90
24226;DHT22;51462;51.422;5.514;2022-10-16T02:33:16;13.00;99.90
24226;DHT22;51462;51.422;5.514;2022-10-16T02:35:44;12.90;99.90
24226;DHT22;51462;51.422;5.514;2022-10-16T02:38:12;13.00;99.90
24226;DHT22;51462;51.422;5.514;2022-10-16T02:40:39;12.90;99.90
24226;DHT22;51462;51.422;5.514;2022-10-16T02:43:05;13.00;99.90
24226;DHT22;51462;51.422;5.514;2022-10-16T02:45:31;13.00;99.90
24226;DHT22;51462;51.422;5.514;2022-10-16T02:47:56;12.90;99.90
24226;DHT22;51462;51.422;5.514;2022-10-16T02:50:22;13.00;99.90
24226;DHT22;51462;51.422;5.514;2022-10-16T02:52:48;12.90;99.90
24226;DHT22;51462;51.422;5.514;2022-10-16T02:55:14;12.80;99.90
24226;DHT22;51462;51.422;5.514;2022-10-16T02:57:39;12.90;99.90
24226;DHT22;51462;51.422;5.514;2022-10-16T03:00:07;12.80;99.90
24226;DHT22;51462;51.422;5.514;2022-10-16T03:02:33;12.80;99.90
24226;DHT22;51462;51.422;5.514;2022-10-16T03:04:59;12.70;99.90
24226;DHT22;51462;51.422;5.514;2022-10-16T03:07:24;12.70;99.90
24226;DHT22;51462;51.422;5.514;2022-10-16T03:09:50;12.80;99.90
24226;DHT22;51462;51.422;5.514;2022-10-16T03:12:15;12.70;99.90
24226;DHT22;51462;51.422;5.514;2022-10-16T03:14:41;12.60;99.90
24226;DHT22;51462;51.422;5.514;2022-10-16T03:17:06;12.60;99.90
24226;DHT22;51462;51.422;5.514;2022-10-16T03:19:32;12.80;99.90
24226;DHT22;51462;51.422;5.514;2022-10-16T03:21:57;12.80;99.90
24226;DHT22;51462;51.422;5.514;2022-10-16T03:24:23;12.90;99.90
24226;DHT22;51462;51.422;5.514;2022-10-16T03:26:48;12.90;99.90
24226;DHT22;51462;51.422;5.514;2022-10-16T03:29:14;12.90;99.90
24226;DHT22;51462;51.422;5.514;2022-10-16T03:31:40;12.90;99.90
24226;DHT22;51462;51.422;5.514;2022-10-16T03:34:06;12.80;99.90
24226;DHT22;51462;51.422;5.514;2022-10-16T03:36:31;12.80;99.90
24226;DHT22;51462;51.422;5.514;2022-10-16T03:38:57;12.80;99.90
24226;DHT22;51462;51.422;5.514;2022-10-16T03:41:23;12.80;99.90
24226;DHT22;51462;51.422;5.514;2022-10-16T03:43:48;12.80;99.90
24226;DHT22;51462;51.422;5.514;2022-10-16T03:46:14;12.80;99.90
24226;DHT22;51462;51.422;5.514;2022-10-16T03:48:39;12.90;99.90
24226;DHT22;51462;51.422;5.514;2022-10-16T03:51:05;12.90;99.90
24226;DHT22;51462;51.422;5.514;2022-10-16T03:53:31;12.80;99.90
24226;DHT22;51462;51.422;5.514;2022-10-16T03:55:56;12.80;99.90
24226;DHT22;51462;51.422;5.514;2022-10-16T03:58:22;12.80;99.90
24226;DHT22;51462;51.422;5.514;2022-10-16T04:00:48;12.80;99.90
24226;DHT22;51462;51.422;5.514;2022-10-16T04:03:14;12.80;99.90
24226;DHT22;51462;51.422;5.514;2022-10-16T04:05:39;12.90;99.90
24226;DHT22;51462;51.422;5.514;2022-10-16T04:08:05;12.90;99.90
24226;DHT22;51462;51.422;5.514;2022-10-16T04:10:30;12.90;99.90
24226;DHT22;51462;51.422;5.514;2022-10-16T04:12:56;13.00;99.90
24226;DHT22;51462;51.422;5.514;2022-10-16T04:15:23;13.00;99.90
24226;DHT22;51462;51.422;5.514;2022-10-16T04:17:49;12.90;99.90
24226;DHT22;51462;51.422;5.514;2022-10-16T04:20:14;12.90;99.90
24226;DHT22;51462;51.422;5.514;2022-10-16T04:22:40;12.90;99.90
24226;DHT22;51462;51.422;5.514;2022-10-16T04:25:06;12.90;99.90
24226;DHT22;51462;51.422;5.514;2022-10-16T04:27:32;12.90;99.90
24226;DHT22;51462;51.422;5.514;2022-10-16T04:29:58;12.90;99.90
24226;DHT22;51462;51.422;5.514;2022-10-16T04:32:24;12.90;99.90
24226;DHT22;51462;51.422;5.514;2022-10-16T04:34:49;12.80;99.90
24226;DHT22;51462;51.422;5.514;2022-10-16T04:37:15;12.90;99.90
24226;DHT22;51462;51.422;5.514;2022-10-16T04:39:40;13.00;99.90
24226;DHT22;51462;51.422;5.514;2022-10-16T04:42:06;12.90;99.90
24226;DHT22;51462;51.422;5.514;2022-10-16T04:44:31;13.00;99.90
24226;DHT22;51462;51.422;5.514;2022-10-16T04:46:57;13.00;99.90
24226;DHT22;51462;51.422;5.514;2022-10-16T04:49:22;13.00;99.90
24226;DHT22;51462;51.422;5.514;2022-10-16T04:51:48;13.00;99.90
24226;DHT22;51462;51.422;5.514;2022-10-16T04:54:13;13.00;99.90
24226;DHT22;51462;51.422;5.514;2022-10-16T04:56:39;12.90;99.90
24226;DHT22;51462;51.422;5.514;2022-10-16T04:59:16;12.90;99.90
24226;DHT22;51462;51.422;5.514;2022-10-16T05:01:42;12.90;99.90
24226;DHT22;51462;51.422;5.514;2022-10-16T05:04:07;12.90;99.90
24226;DHT22;51462;51.422;5.514;2022-10-16T05:06:33;12.90;99.90
24226;DHT22;51462;51.422;5.514;2022-10-16T05:08:58;12.90;99.90
24226;DHT22;51462;51.422;5.514;2022-10-16T05:11:24;12.90;99.90
24226;DHT22;51462;51.422;5.514;2022-10-16T05:13:50;13.00;99.90
24226;DHT22;51462;51.422;5.514;2022-10-16T05:16:15;12.90;99.90
24226;DHT22;51462;51.422;5.514;2022-10-16T05:18:41;12.90;99.90
24226;DHT22;51462;51.422;5.514;2022-10-16T05:21:06;12.90;99.90
24226;DHT22;51462;51.422;5.514;2022-10-16T05:23:32;12.90;99.90
24226;DHT22;51462;51.422;5.514;2022-10-16T05:25:59;12.90;99.90
24226;DHT22;51462;51.422;5.514;2022-10-16T05:28:28;13.00;99.90
24226;DHT22;51462;51.422;5.514;2022-10-16T05:30:54;13.00;99.90
24226;DHT22;51462;51.422;5.514;2022-10-16T05:33:28;13.00;99.90
24226;DHT22;51462;51.422;5.514;2022-10-16T05:35:54;13.00;99.90
24226;DHT22;51462;51.422;5.514;2022-10-16T05:38:19;13.00;99.90
24226;DHT22;51462;51.422;5.514;2022-10-16T05:40:51;13.00;99.90
24226;DHT22;51462;51.422;5.514;2022-10-16T05:43:18;12.90;99.90
24226;DHT22;51462;51.422;5.514;2022-10-16T05:45:43;12.90;99.90
24226;DHT22;51462;51.422;5.514;2022-10-16T05:48:09;12.90;99.90
24226;DHT22;51462;51.422;5.514;2022-10-16T05:50:34;12.90;99.90
24226;DHT22;51462;51.422;5.514;2022-10-16T05:53:00;12.80;99.90
24226;DHT22;51462;51.422;5.514;2022-10-16T05:55:25;12.80;99.90
24226;DHT22;51462;51.422;5.514;2022-10-16T05:57:54;12.90;99.90
24226;DHT22;51462;51.422;5.514;2022-10-16T06:00:19;12.90;99.90
24226;DHT22;51462;51.422;5.514;2022-10-16T06:02:45;12.90;99.90
24226;DHT22;51462;51.422;5.514;2022-10-16T06:05:11;12.80;99.90
24226;DHT22;51462;51.422;5.514;2022-10-16T06:07:36;12.80;99.90
24226;DHT22;51462;51.422;5.514;2022-10-16T06:10:03;12.80;99.90
24226;DHT22;51462;51.422;5.514;2022-10-16T06:12:29;12.90;99.90
24226;DHT22;51462;51.422;5.514;2022-10-16T06:14:54;12.90;99.90
24226;DHT22;51462;51.422;5.514;2022-10-16T06:17:20;12.90;99.90
24226;DHT22;51462;51.422;5.514;2022-10-16T06:19:45;12.90;99.90
24226;DHT22;51462;51.422;5.514;2022-10-16T06:22:11;12.90;99.90
24226;DHT22;51462;51.422;5.514;2022-10-16T06:24:36;13.00;99.90
24226;DHT22;51462;51.422;5.514;2022-10-16T06:27:03;12.90;99.90
24226;DHT22;51462;51.422;5.514;2022-10-16T06:29:29;13.00;99.90
24226;DHT22;51462;51.422;5.514;2022-10-16T06:31:54;13.00;99.90
24226;DHT22;51462;51.422;5.514;2022-10-16T06:34:20;13.00;99.90
24226;DHT22;51462;51.422;5.514;2022-10-16T06:36:45;12.90;99.90
24226;DHT22;51462;51.422;5.514;2022-10-16T06:39:11;12.90;99.90
24226;DHT22;51462;51.422;5.514;2022-10-16T06:41:36;12.90;99.90
24226;DHT22;51462;51.422;5.514;2022-10-16T06:44:05;12.90;99.90
24226;DHT22;51462;51.422;5.514;2022-10-16T06:46:32;12.90;99.90
24226;DHT22;51462;51.422;5.514;2022-10-16T06:48:57;12.80;99.90
24226;DHT22;51462;51.422;5.514;2022-10-16T06:51:24;12.80;99.90
24226;DHT22;51462;51.422;5.514;2022-10-16T06:53:53;12.80;99.90
24226;DHT22;51462;51.422;5.514;2022-10-16T06:56:24;12.70;99.90
24226;DHT22;51462;51.422;5.514;2022-10-16T06:58:50;12.70;99.90
24226;DHT22;51462;51.422;5.514;2022-10-16T07:01:18;12.70;99.90
24226;DHT22;51462;51.422;5.514;2022-10-16T07:03:45;12.70;99.90
24226;DHT22;51462;51.422;5.514;2022-10-16T07:06:12;12.70;99.90
24226;DHT22;51462;51.422;5.514;2022-10-16T07:08:40;12.80;99.90
24226;DHT22;51462;51.422;5.514;2022-10-16T07:11:08;12.90;99.90
24226;DHT22;51462;51.422;5.514;2022-10-16T07:13:34;12.90;99.90
24226;DHT22;51462;51.422;5.514;2022-10-16T07:16:11;12.90;99.90
24226;DHT22;51462;51.422;5.514;2022-10-16T07:18:38;13.00;99.90
24226;DHT22;51462;51.422;5.514;2022-10-16T07:21:06;13.00;99.90
24226;DHT22;51462;51.422;5.514;2022-10-16T07:23:32;13.00;99.90
24226;DHT22;51462;51.422;5.514;2022-10-16T07:25:58;13.10;99.90
24226;DHT22;51462;51.422;5.514;2022-10-16T07:28:24;13.10;99.90
24226;DHT22;51462;51.422;5.514;2022-10-16T07:30:49;13.10;99.90
24226;DHT22;51462;51.422;5.514;2022-10-16T07:33:15;13.20;99.90
24226;DHT22;51462;51.422;5.514;2022-10-16T07:35:49;13.10;99.90
24226;DHT22;51462;51.422;5.514;2022-10-16T07:38:15;13.20;99.90
24226;DHT22;51462;51.422;5.514;2022-10-16T07:40:40;13.20;99.90
24226;DHT22;51462;51.422;5.514;2022-10-16T07:43:06;13.20;99.90
24226;DHT22;51462;51.422;5.514;2022-10-16T07:45:31;13.30;99.90
24226;DHT22;51462;51.422;5.514;2022-10-16T07:47:57;13.30;99.90
24226;DHT22;51462;51.422;5.514;2022-10-16T07:50:22;13.30;99.90
24226;DHT22;51462;51.422;5.514;2022-10-16T07:52:48;13.40;99.90
24226;DHT22;51462;51.422;5.514;2022-10-16T07:55:13;13.40;99.90
24226;DHT22;51462;51.422;5.514;2022-10-16T07:57:39;13.40;99.90
24226;DHT22;51462;51.422;5.514;2022-10-16T08:00:05;13.30;99.90
24226;DHT22;51462;51.422;5.514;2022-10-16T08:02:31;13.50;99.90
24226;DHT22;51462;51.422;5.514;2022-10-16T08:04:57;13.50;99.90
24226;DHT22;51462;51.422;5.514;2022-10-16T08:07:23;13.60;99.90
24226;DHT22;51462;51.422;5.514;2022-10-16T08:09:51;13.60;99.90
24226;DHT22;51462;51.422;5.514;2022-10-16T08:12:17;13.70;99.90
24226;DHT22;51462;51.422;5.514;2022-10-16T08:14:43;13.80;99.90
24226;DHT22;51462;51.422;5.514;2022-10-16T08:17:08;13.80;99.90
24226;DHT22;51462;51.422;5.514;2022-10-16T08:19:34;13.80;99.90
24226;DHT22;51462;51.422;5.514;2022-10-16T08:22:00;13.90;99.90
24226;DHT22;51462;51.422;5.514;2022-10-16T08:24:26;13.90;99.90
24226;DHT22;51462;51.422;5.514;2022-10-16T08:26:53;13.80;99.90
24226;DHT22;51462;51.422;5.514;2022-10-16T08:29:19;14.00;99.90
24226;DHT22;51462;51.422;5.514;2022-10-16T08:31:45;13.90;99.90
24226;DHT22;51462;51.422;5.514;2022-10-16T08:34:10;14.10;99.90
24226;DHT22;51462;51.422;5.514;2022-10-16T08:36:36;14.00;99.90
24226;DHT22;51462;51.422;5.514;2022-10-16T08:39:01;14.10;99.90
24226;DHT22;51462;51.422;5.514;2022-10-16T08:49:59;14.40;99.90
24226;DHT22;51462;51.422;5.514;2022-10-16T08:52:32;14.50;99.90
24226;DHT22;51462;51.422;5.514;2022-10-16T08:54:59;14.50;99.90
24226;DHT22;51462;51.422;5.514;2022-10-16T08:57:25;14.40;99.90
24226;DHT22;51462;51.422;5.514;2022-10-16T08:59:55;14.50;99.90
24226;DHT22;51462;51.422;5.514;2022-10-16T09:02:53;14.70;99.90
24226;DHT22;51462;51.422;5.514;2022-10-16T09:11:20;14.80;99.90
24226;DHT22;51462;51.422;5.514;2022-10-16T09:17:17;14.90;99.90
24226;DHT22;51462;51.422;5.514;2022-10-16T09:19:51;15.00;99.90
24226;DHT22;51462;51.422;5.514;2022-10-16T09:22:20;15.10;99.90
24226;DHT22;51462;51.422;5.514;2022-10-16T09:24:47;15.10;99.90
24226;DHT22;51462;51.422;5.514;2022-10-16T09:27:14;15.20;99.90
24226;DHT22;51462;51.422;5.514;2022-10-16T09:29:40;15.30;99.90
24226;DHT22;51462;51.422;5.514;2022-10-16T09:32:11;15.30;99.90
24226;DHT22;51462;51.422;5.514;2022-10-16T09:34:42;15.50;99.90
24226;DHT22;51462;51.422;5.514;2022-10-16T09:37:11;15.50;99.90
24226;DHT22;51462;51.422;5.514;2022-10-16T09:39:49;15.50;99.90
24226;DHT22;51462;51.422;5.514;2022-10-16T09:42:20;15.60;99.90
24226;DHT22;51462;51.422;5.514;2022-10-16T09:44:50;15.80;99.90
24226;DHT22;51462;51.422;5.514;2022-10-16T09:47:27;15.80;99.90
24226;DHT22;51462;51.422;5.514;2022-10-16T09:50:02;15.90;99.90
24226;DHT22;51462;51.422;5.514;2022-10-16T09:52:30;16.00;99.90
24226;DHT22;51462;51.422;5.514;2022-10-16T09:54:58;15.90;99.90
24226;DHT22;51462;51.422;5.514;2022-10-16T09:57:24;16.00;99.90
24226;DHT22;51462;51.422;5.514;2022-10-16T09:59:52;16.20;99.90
24226;DHT22;51462;51.422;5.514;2022-10-16T10:02:23;16.20;99.90
24226;DHT22;51462;51.422;5.514;2022-10-16T10:04:53;16.40;99.90
24226;DHT22;51462;51.422;5.514;2022-10-16T10:07:32;16.30;99.90
24226;DHT22;51462;51.422;5.514;2022-10-16T10:10:00;16.60;99.90
24226;DHT22;51462;51.422;5.514;2022-10-16T10:12:30;16.40;99.90
24226;DHT22;51462;51.422;5.514;2022-10-16T10:15:11;16.50;99.90
24226;DHT22;51462;51.422;5.514;2022-10-16T10:17:54;16.20;99.90
24226;DHT22;51462;51.422;5.514;2022-10-16T10:20:35;16.50;99.90
24226;DHT22;51462;51.422;5.514;2022-10-16T10:23:21;16.50;99.90
24226;DHT22;51462;51.422;5.514;2022-10-16T10:28:48;16.80;99.90
24226;DHT22;51462;51.422;5.514;2022-10-16T10:31:28;16.90;99.90
24226;DHT22;51462;51.422;5.514;2022-10-16T10:36:41;16.80;99.90
24226;DHT22;51462;51.422;5.514;2022-10-16T10:39:16;16.90;99.90
24226;DHT22;51462;51.422;5.514;2022-10-16T10:47:32;17.20;99.90
24226;DHT22;51462;51.422;5.514;2022-10-16T11:04:32;17.50;99.90
24226;DHT22;51462;51.422;5.514;2022-10-16T11:07:05;17.60;99.90
24226;DHT22;51462;51.422;5.514;2022-10-16T11:09:42;17.60;99.90
24226;DHT22;51462;51.422;5.514;2022-10-16T11:12:23;17.80;99.90
24226;DHT22;51462;51.422;5.514;2022-10-16T11:15:07;17.70;99.90
24226;DHT22;51462;51.422;5.514;2022-10-16T11:17:43;17.70;99.90
24226;DHT22;51462;51.422;5.514;2022-10-16T11:20:20;17.80;99.90
24226;DHT22;51462;51.422;5.514;2022-10-16T11:25:33;17.90;99.90
24226;DHT22;51462;51.422;5.514;2022-10-16T11:31:08;18.30;99.90
24226;DHT22;51462;51.422;5.514;2022-10-16T11:33:48;18.40;99.90
24226;DHT22;51462;51.422;5.514;2022-10-16T11:46:29;19.30;99.90
24226;DHT22;51462;51.422;5.514;2022-10-16T11:54:32;19.80;99.90
24226;DHT22;51462;51.422;5.514;2022-10-16T11:57:19;20.00;99.90
24226;DHT22;51462;51.422;5.514;2022-10-16T11:59:53;20.20;99.90
24226;DHT22;51462;51.422;5.514;2022-10-16T12:02:38;20.10;99.90
24226;DHT22;51462;51.422;5.514;2022-10-16T12:10:32;20.60;99.90
24226;DHT22;51462;51.422;5.514;2022-10-16T12:13:02;20.50;99.90
24226;DHT22;51462;51.422;5.514;2022-10-16T12:15:30;21.00;99.90
24226;DHT22;51462;51.422;5.514;2022-10-16T12:17:56;20.40;99.90
24226;DHT22;51462;51.422;5.514;2022-10-16T12:20:32;20.70;99.90
24226;DHT22;51462;51.422;5.514;2022-10-16T12:23:04;20.90;99.90
24226;DHT22;51462;51.422;5.514;2022-10-16T12:25:36;21.20;99.90
24226;DHT22;51462;51.422;5.514;2022-10-16T12:28:19;21.30;99.90
24226;DHT22;51462;51.422;5.514;2022-10-16T12:30:54;21.80;99.90
24226;DHT22;51462;51.422;5.514;2022-10-16T12:33:29;21.50;99.90
24226;DHT22;51462;51.422;5.514;2022-10-16T12:35:55;21.10;99.90
24226;DHT22;51462;51.422;5.514;2022-10-16T12:38:31;21.60;99.90
24226;DHT22;51462;51.422;5.514;2022-10-16T12:41:05;21.70;99.90
24226;DHT22;51462;51.422;5.514;2022-10-16T12:43:36;21.70;99.90
24226;DHT22;51462;51.422;5.514;2022-10-16T12:48:35;22.60;99.90
24226;DHT22;51462;51.422;5.514;2022-10-16T12:51:24;22.40;99.90
24226;DHT22;51462;51.422;5.514;2022-10-16T13:01:54;22.20;99.90
24226;DHT22;51462;51.422;5.514;2022-10-16T13:05:03;22.90;99.90
24226;DHT22;51462;51.422;5.514;2022-10-16T13:16:04;22.80;99.90
24226;DHT22;51462;51.422;5.514;2022-10-16T13:19:09;22.50;99.90
24226;DHT22;51462;51.422;5.514;2022-10-16T13:21:51;22.90;99.90
24226;DHT22;51462;51.422;5.514;2022-10-16T13:24:56;22.50;99.90
24226;DHT22;51462;51.422;5.514;2022-10-16T13:30:12;22.80;99.90
24226;DHT22;51462;51.422;5.514;2022-10-16T13:32:39;22.50;99.90
24226;DHT22;51462;51.422;5.514;2022-10-16T13:35:22;22.70;99.90
24226;DHT22;51462;51.422;5.514;2022-10-16T13:37:49;22.00;99.90
24226;DHT22;51462;51.422;5.514;2022-10-16T13:40:23;22.20;99.90
24226;DHT22;51462;51.422;5.514;2022-10-16T13:42:50;22.60;99.90
24226;DHT22;51462;51.422;5.514;2022-10-16T13:45:20;22.60;99.90
24226;DHT22;51462;51.422;5.514;2022-10-16T13:47:46;22.30;99.90
24226;DHT22;51462;51.422;5.514;2022-10-16T13:50:15;22.40;99.90
24226;DHT22;51462;51.422;5.514;2022-10-16T13:52:41;22.40;99.90
24226;DHT22;51462;51.422;5.514;2022-10-16T13:55:17;22.20;99.90
24226;DHT22;51462;51.422;5.514;2022-10-16T13:57:44;21.90;99.90
24226;DHT22;51462;51.422;5.514;2022-10-16T14:00:26;22.10;99.90
24226;DHT22;51462;51.422;5.514;2022-10-16T14:03:04;22.00;99.90
24226;DHT22;51462;51.422;5.514;2022-10-16T14:05:30;21.90;99.90
24226;DHT22;51462;51.422;5.514;2022-10-16T14:07:56;22.00;99.90
24226;DHT22;51462;51.422;5.514;2022-10-16T14:10:28;21.90;99.90
24226;DHT22;51462;51.422;5.514;2022-10-16T14:13:17;21.60;99.90
24226;DHT22;51462;51.422;5.514;2022-10-16T14:15:47;21.70;99.90
24226;DHT22;51462;51.422;5.514;2022-10-16T14:18:19;22.00;99.90
24226;DHT22;51462;51.422;5.514;2022-10-16T14:20:45;21.80;99.90
24226;DHT22;51462;51.422;5.514;2022-10-16T14:23:33;21.70;99.90
24226;DHT22;51462;51.422;5.514;2022-10-16T14:28:34;21.80;99.90
24226;DHT22;51462;51.422;5.514;2022-10-16T14:31:01;21.70;99.90
24226;DHT22;51462;51.422;5.514;2022-10-16T14:36:21;21.70;99.90
24226;DHT22;51462;51.422;5.514;2022-10-16T14:39:06;21.70;99.90
24226;DHT22;51462;51.422;5.514;2022-10-16T14:41:46;21.90;99.90
24226;DHT22;51462;51.422;5.514;2022-10-16T14:44:12;22.20;99.90
24226;DHT22;51462;51.422;5.514;2022-10-16T14:46:40;22.40;99.90
24226;DHT22;51462;51.422;5.514;2022-10-16T14:51:39;21.50;99.90
24226;DHT22;51462;51.422;5.514;2022-10-16T14:54:08;21.20;99.90
24226;DHT22;51462;51.422;5.514;2022-10-16T14:56:52;21.20;99.90
24226;DHT22;51462;51.422;5.514;2022-10-16T14:59:27;21.20;99.90
24226;DHT22;51462;51.422;5.514;2022-10-16T15:01:54;20.90;99.90
24226;DHT22;51462;51.422;5.514;2022-10-16T15:04:19;21.20;99.90
24226;DHT22;51462;51.422;5.514;2022-10-16T15:06:45;21.20;99.90
24226;DHT22;51462;51.422;5.514;2022-10-16T15:09:11;21.00;99.90
24226;DHT22;51462;51.422;5.514;2022-10-16T15:11:37;20.90;99.90
24226;DHT22;51462;51.422;5.514;2022-10-16T15:14:03;20.90;99.90
24226;DHT22;51462;51.422;5.514;2022-10-16T15:16:29;20.80;99.90
24226;DHT22;51462;51.422;5.514;2022-10-16T15:18:55;20.90;99.90
24226;DHT22;51462;51.422;5.514;2022-10-16T15:21:31;21.00;99.90
24226;DHT22;51462;51.422;5.514;2022-10-16T15:23:58;20.90;99.90
24226;DHT22;51462;51.422;5.514;2022-10-16T15:26:28;20.90;99.90
24226;DHT22;51462;51.422;5.514;2022-10-16T15:28:55;21.00;99.90
24226;DHT22;51462;51.422;5.514;2022-10-16T15:31:21;21.10;99.90
24226;DHT22;51462;51.422;5.514;2022-10-16T15:33:50;21.10;99.90
24226;DHT22;51462;51.422;5.514;2022-10-16T15:36:25;21.00;99.90
24226;DHT22;51462;51.422;5.514;2022-10-16T15:38:51;20.90;99.90
24226;DHT22;51462;51.422;5.514;2022-10-16T15:41:16;20.80;99.90
24226;DHT22;51462;51.422;5.514;2022-10-16T15:43:42;20.90;99.90
24226;DHT22;51462;51.422;5.514;2022-10-16T15:46:11;20.80;99.90
24226;DHT22;51462;51.422;5.514;2022-10-16T15:48:37;20.90;99.90
24226;DHT22;51462;51.422;5.514;2022-10-16T15:51:07;20.80;99.90
24226;DHT22;51462;51.422;5.514;2022-10-16T15:53:33;20.80;99.90
24226;DHT22;51462;51.422;5.514;2022-10-16T15:56:03;20.70;99.90
24226;DHT22;51462;51.422;5.514;2022-10-16T15:58:29;20.60;99.90
24226;DHT22;51462;51.422;5.514;2022-10-16T16:00:59;20.60;99.90
24226;DHT22;51462;51.422;5.514;2022-10-16T16:03:29;20.40;99.90
24226;DHT22;51462;51.422;5.514;2022-10-16T16:05:55;20.50;99.90
24226;DHT22;51462;51.422;5.514;2022-10-16T16:08:21;20.50;99.90
24226;DHT22;51462;51.422;5.514;2022-10-16T16:11:04;20.60;99.90
24226;DHT22;51462;51.422;5.514;2022-10-16T16:13:31;20.30;99.90
24226;DHT22;51462;51.422;5.514;2022-10-16T16:15:57;19.90;99.90
24226;DHT22;51462;51.422;5.514;2022-10-16T16:18:22;19.70;99.90
24226;DHT22;51462;51.422;5.514;2022-10-16T16:20:49;19.60;99.90
24226;DHT22;51462;51.422;5.514;2022-10-16T16:23:15;19.40;99.90
24226;DHT22;51462;51.422;5.514;2022-10-16T16:25:41;19.60;99.90
24226;DHT22;51462;51.422;5.514;2022-10-16T16:28:07;19.50;99.90
24226;DHT22;51462;51.422;5.514;2022-10-16T16:30:32;19.40;99.90
24226;DHT22;51462;51.422;5.514;2022-10-16T16:32:58;19.40;99.90
24226;DHT22;51462;51.422;5.514;2022-10-16T16:35:23;19.20;99.90
24226;DHT22;51462;51.422;5.514;2022-10-16T16:37:49;19.10;99.90
24226;DHT22;51462;51.422;5.514;2022-10-16T16:40:15;19.20;99.90
24226;DHT22;51462;51.422;5.514;2022-10-16T16:42:40;19.00;99.90
24226;DHT22;51462;51.422;5.514;2022-10-16T16:45:06;18.80;99.90
24226;DHT22;51462;51.422;5.514;2022-10-16T16:47:32;18.70;99.90
24226;DHT22;51462;51.422;5.514;2022-10-16T16:49:58;18.60;99.90
24226;DHT22;51462;51.422;5.514;2022-10-16T16:52:23;18.60;99.90
24226;DHT22;51462;51.422;5.514;2022-10-16T16:54:49;18.50;99.90
24226;DHT22;51462;51.422;5.514;2022-10-16T16:57:21;18.50;99.90
24226;DHT22;51462;51.422;5.514;2022-10-16T16:59:46;18.40;99.90
24226;DHT22;51462;51.422;5.514;2022-10-16T17:02:15;18.30;99.90
24226;DHT22;51462;51.422;5.514;2022-10-16T17:04:40;18.30;99.90
24226;DHT22;51462;51.422;5.514;2022-10-16T17:07:06;18.30;99.90
24226;DHT22;51462;51.422;5.514;2022-10-16T17:09:33;18.20;99.90
24226;DHT22;51462;51.422;5.514;2022-10-16T17:11:58;18.30;99.90
24226;DHT22;51462;51.422;5.514;2022-10-16T17:14:24;18.40;99.90
24226;DHT22;51462;51.422;5.514;2022-10-16T17:16:51;18.40;99.90
24226;DHT22;51462;51.422;5.514;2022-10-16T17:19:18;18.30;99.90
24226;DHT22;51462;51.422;5.514;2022-10-16T17:21:46;18.10;99.90
24226;DHT22;51462;51.422;5.514;2022-10-16T17:24:12;18.00;99.90
24226;DHT22;51462;51.422;5.514;2022-10-16T17:26:38;18.00;99.90
24226;DHT22;51462;51.422;5.514;2022-10-16T17:29:06;17.90;99.90
24226;DHT22;51462;51.422;5.514;2022-10-16T17:31:35;18.00;99.90
24226;DHT22;51462;51.422;5.514;2022-10-16T17:34:05;18.00;99.90
24226;DHT22;51462;51.422;5.514;2022-10-16T17:36:33;18.10;99.90
24226;DHT22;51462;51.422;5.514;2022-10-16T17:39:01;18.10;99.90